Jacksonville, Georgia
Current Conditions -  °F | °C
As of 2:15 PM on Monday 22 Dec 2014 (Local Time) from KFZG Reporting Station
Haze Haze  
Wind Chill: 55°   Ceiling: 300
Heat Index: 55°   Visibility: 1.7mi
Dew Point: 52°   Wind: 5mph
Humidity: 91%   Direction: 60°ENE
Pressure: 29.92"   Gusts: NA
Location:  31.81°N, 82.98°W
Report Text: KFZG 221915Z AUTO 06004KT 1 3/4SM BR OVC003 13/11 A2992 RMK AO2 LTG DSNT SE T01250111
Loading
Personal Weather Stations






























Interactive Weather Map New forecast layout! Learn more

10-Day Weather Forecast

Advertisements
Track Severe Weather on mobile